sensor_id;sensor_type;location;lat;lon;timestamp;pressure;altitude;pressure_sealevel;temperature;humidity
64292;BME280;50628;51.008;13.658;2022-09-03T00:01:15;99868.88;;;13.43;91.86
64292;BME280;50628;51.008;13.658;2022-09-03T00:06:23;99872.03;;;13.37;92.61
64292;BME280;50628;51.008;13.658;2022-09-03T00:11:28;99863.88;;;13.59;92.11
64292;BME280;50628;51.008;13.658;2022-09-03T00:16:41;99863.19;;;13.57;89.90
64292;BME280;50628;51.008;13.658;2022-09-03T00:21:46;99845.97;;;13.64;88.71
64292;BME280;50628;51.008;13.658;2022-09-03T00:26:51;99840.47;;;13.58;91.54
64292;BME280;50628;51.008;13.658;2022-09-03T00:31:57;99846.56;;;13.29;92.78
64292;BME280;50628;51.008;13.658;2022-09-03T00:37:03;99842.00;;;13.02;95.18
64292;BME280;50628;51.008;13.658;2022-09-03T00:42:17;99840.34;;;12.91;96.43
64292;BME280;50628;51.008;13.658;2022-09-03T00:47:29;99845.25;;;12.75;97.28
64292;BME280;50628;51.008;13.658;2022-09-03T00:52:45;99848.81;;;12.64;98.81
64292;BME280;50628;51.008;13.658;2022-09-03T00:58:04;99845.38;;;12.54;99.24
64292;BME280;50628;51.008;13.658;2022-09-03T01:03:11;99842.47;;;12.47;98.85
64292;BME280;50628;51.008;13.658;2022-09-03T01:08:26;99844.00;;;12.50;98.53
64292;BME280;50628;51.008;13.658;2022-09-03T01:13:35;99840.56;;;12.59;98.04
64292;BME280;50628;51.008;13.658;2022-09-03T01:18:47;99846.69;;;12.39;98.86
64292;BME280;50628;51.008;13.658;2022-09-03T01:24:06;99844.88;;;12.29;99.34
64292;BME280;50628;51.008;13.658;2022-09-03T01:29:24;99843.47;;;12.16;99.91
64292;BME280;50628;51.008;13.658;2022-09-03T01:34:40;99845.38;;;12.13;100.00
64292;BME280;50628;51.008;13.658;2022-09-03T01:39:53;99849.56;;;11.95;100.00
64292;BME280;50628;51.008;13.658;2022-09-03T01:45:29;99852.53;;;11.90;100.00
64292;BME280;50628;51.008;13.658;2022-09-03T01:50:41;99851.72;;;11.90;100.00
64292;BME280;50628;51.008;13.658;2022-09-03T01:55:57;99852.88;;;11.97;100.00
64292;BME280;50628;51.008;13.658;2022-09-03T02:01:14;99848.53;;;11.86;100.00
64292;BME280;50628;51.008;13.658;2022-09-03T02:06:17;99854.72;;;11.64;100.00
64292;BME280;50628;51.008;13.658;2022-09-03T02:11:20;99850.69;;;11.60;100.00
64292;BME280;50628;51.008;13.658;2022-09-03T02:16:26;99853.75;;;11.44;100.00
64292;BME280;50628;51.008;13.658;2022-09-03T02:21:32;99857.84;;;11.26;100.00
64292;BME280;50628;51.008;13.658;2022-09-03T02:26:35;99853.72;;;11.23;100.00
64292;BME280;50628;51.008;13.658;2022-09-03T02:31:38;99860.91;;;11.31;100.00
64292;BME280;50628;51.008;13.658;2022-09-03T02:36:42;99862.22;;;11.25;100.00
64292;BME280;50628;51.008;13.658;2022-09-03T02:41:50;99861.13;;;11.07;100.00
64292;BME280;50628;51.008;13.658;2022-09-03T02:46:58;99867.97;;;11.08;100.00
64292;BME280;50628;51.008;13.658;2022-09-03T02:52:02;99862.78;;;11.08;100.00
64292;BME280;50628;51.008;13.658;2022-09-03T02:57:06;99858.63;;;11.05;100.00
64292;BME280;50628;51.008;13.658;2022-09-03T03:02:11;99857.44;;;11.10;100.00
64292;BME280;50628;51.008;13.658;2022-09-03T03:07:12;99850.72;;;10.96;100.00
64292;BME280;50628;51.008;13.658;2022-09-03T03:12:14;99848.53;;;10.91;100.00
64292;BME280;50628;51.008;13.658;2022-09-03T03:17:18;99852.88;;;10.91;100.00
64292;BME280;50628;51.008;13.658;2022-09-03T03:22:19;99849.03;;;10.74;100.00
64292;BME280;50628;51.008;13.658;2022-09-03T03:27:21;99839.69;;;10.60;100.00
64292;BME280;50628;51.008;13.658;2022-09-03T03:32:25;99850.94;;;10.60;100.00
64292;BME280;50628;51.008;13.658;2022-09-03T03:37:27;99852.84;;;10.47;100.00
64292;BME280;50628;51.008;13.658;2022-09-03T03:42:31;99853.81;;;10.46;100.00
64292;BME280;50628;51.008;13.658;2022-09-03T03:47:35;99859.84;;;10.47;100.00
64292;BME280;50628;51.008;13.658;2022-09-03T03:52:37;99847.28;;;10.40;100.00
64292;BME280;50628;51.008;13.658;2022-09-03T03:57:39;99854.53;;;10.48;100.00
64292;BME280;50628;51.008;13.658;2022-09-03T04:02:42;99850.75;;;10.30;100.00
64292;BME280;50628;51.008;13.658;2022-09-03T04:07:44;99846.94;;;10.23;100.00
64292;BME280;50628;51.008;13.658;2022-09-03T04:12:45;99840.66;;;10.14;100.00
64292;BME280;50628;51.008;13.658;2022-09-03T04:17:49;99838.06;;;10.14;100.00
64292;BME280;50628;51.008;13.658;2022-09-03T04:22:50;99840.06;;;9.99;100.00
64292;BME280;50628;51.008;13.658;2022-09-03T04:27:52;99841.72;;;10.00;100.00
64292;BME280;50628;51.008;13.658;2022-09-03T04:32:55;99840.19;;;9.86;100.00
64292;BME280;50628;51.008;13.658;2022-09-03T04:37:57;99837.09;;;9.81;100.00
64292;BME280;50628;51.008;13.658;2022-09-03T04:42:59;99839.34;;;9.74;100.00
64292;BME280;50628;51.008;13.658;2022-09-03T04:48:03;99842.31;;;9.81;100.00
64292;BME280;50628;51.008;13.658;2022-09-03T04:53:05;99840.91;;;9.88;100.00
64292;BME280;50628;51.008;13.658;2022-09-03T04:58:07;99847.16;;;9.97;100.00
64292;BME280;50628;51.008;13.658;2022-09-03T05:03:10;99853.66;;;9.91;100.00
64292;BME280;50628;51.008;13.658;2022-09-03T05:08:12;99852.38;;;9.86;100.00
64292;BME280;50628;51.008;13.658;2022-09-03T05:13:14;99837.47;;;9.88;100.00
64292;BME280;50628;51.008;13.658;2022-09-03T05:18:17;99841.81;;;9.87;100.00
64292;BME280;50628;51.008;13.658;2022-09-03T05:23:20;99839.25;;;9.99;100.00
64292;BME280;50628;51.008;13.658;2022-09-03T05:28:22;99840.78;;;10.01;100.00
64292;BME280;50628;51.008;13.658;2022-09-03T05:33:25;99839.00;;;10.02;100.00
64292;BME280;50628;51.008;13.658;2022-09-03T05:38:27;99841.03;;;10.21;100.00
64292;BME280;50628;51.008;13.658;2022-09-03T05:43:30;99849.91;;;10.29;100.00
64292;BME280;50628;51.008;13.658;2022-09-03T05:48:34;99850.59;;;10.43;100.00
64292;BME280;50628;51.008;13.658;2022-09-03T05:53:37;99845.41;;;10.54;100.00
64292;BME280;50628;51.008;13.658;2022-09-03T05:58:40;99847.16;;;10.65;100.00
64292;BME280;50628;51.008;13.658;2022-09-03T06:03:47;99846.84;;;10.90;100.00
64292;BME280;50628;51.008;13.658;2022-09-03T06:08:49;99847.44;;;10.94;100.00
64292;BME280;50628;51.008;13.658;2022-09-03T06:13:51;99845.25;;;11.31;99.76
64292;BME280;50628;51.008;13.658;2022-09-03T06:18:54;99846.63;;;11.46;99.47
64292;BME280;50628;51.008;13.658;2022-09-03T06:23:57;99851.94;;;11.66;98.12
64292;BME280;50628;51.008;13.658;2022-09-03T06:28:59;99851.13;;;11.86;97.92
64292;BME280;50628;51.008;13.658;2022-09-03T06:34:02;99846.50;;;11.90;97.06
64292;BME280;50628;51.008;13.658;2022-09-03T06:39:03;99855.03;;;12.23;96.20
64292;BME280;50628;51.008;13.658;2022-09-03T06:44:07;99850.06;;;12.60;94.44
64292;BME280;50628;51.008;13.658;2022-09-03T06:49:12;99847.75;;;12.86;93.06
64292;BME280;50628;51.008;13.658;2022-09-03T06:54:14;99840.38;;;13.11;91.30
64292;BME280;50628;51.008;13.658;2022-09-03T06:59:15;99843.38;;;13.35;91.18
64292;BME280;50628;51.008;13.658;2022-09-03T07:04:19;99837.84;;;13.58;90.34
64292;BME280;50628;51.008;13.658;2022-09-03T07:09:22;99830.94;;;13.86;88.89
64292;BME280;50628;51.008;13.658;2022-09-03T07:14:24;99831.28;;;14.28;87.20
64292;BME280;50628;51.008;13.658;2022-09-03T07:19:27;99821.25;;;14.52;86.22
64292;BME280;50628;51.008;13.658;2022-09-03T07:24:29;99820.13;;;15.00;84.00
64292;BME280;50628;51.008;13.658;2022-09-03T07:29:31;99820.41;;;15.32;81.69
64292;BME280;50628;51.008;13.658;2022-09-03T07:34:34;99805.72;;;15.66;78.55
64292;BME280;50628;51.008;13.658;2022-09-03T07:39:36;99805.78;;;15.74;76.64
64292;BME280;50628;51.008;13.658;2022-09-03T07:44:38;99799.25;;;15.78;74.32
64292;BME280;50628;51.008;13.658;2022-09-03T07:49:44;99810.59;;;16.13;72.68
64292;BME280;50628;51.008;13.658;2022-09-03T07:54:46;99805.53;;;16.28;71.06
64292;BME280;50628;51.008;13.658;2022-09-03T07:59:47;99802.72;;;16.21;71.23
64292;BME280;50628;51.008;13.658;2022-09-03T08:04:50;99806.25;;;16.38;69.98
64292;BME280;50628;51.008;13.658;2022-09-03T08:09:52;99801.78;;;16.81;68.60
64292;BME280;50628;51.008;13.658;2022-09-03T08:14:54;99808.09;;;16.62;67.55
64292;BME280;50628;51.008;13.658;2022-09-03T08:19:58;99807.69;;;17.16;65.65
64292;BME280;50628;51.008;13.658;2022-09-03T08:25:00;99811.59;;;16.71;64.73
64292;BME280;50628;51.008;13.658;2022-09-03T08:30:02;99797.34;;;17.06;64.43
64292;BME280;50628;51.008;13.658;2022-09-03T08:35:06;99791.88;;;17.40;62.49
64292;BME280;50628;51.008;13.658;2022-09-03T08:40:09;99799.13;;;17.46;62.92
64292;BME280;50628;51.008;13.658;2022-09-03T08:45:15;99792.81;;;17.80;60.27
64292;BME280;50628;51.008;13.658;2022-09-03T08:50:23;99792.94;;;17.95;59.17
64292;BME280;50628;51.008;13.658;2022-09-03T08:55:28;99786.53;;;17.98;58.50
64292;BME280;50628;51.008;13.658;2022-09-03T09:00:40;99787.28;;;18.06;59.08
64292;BME280;50628;51.008;13.658;2022-09-03T09:05:53;99774.25;;;18.52;56.27
64292;BME280;50628;51.008;13.658;2022-09-03T09:11:01;99774.41;;;18.51;55.81
64292;BME280;50628;51.008;13.658;2022-09-03T09:16:11;99777.19;;;18.49;55.22
64292;BME280;50628;51.008;13.658;2022-09-03T09:21:22;99770.75;;;18.83;54.56
64292;BME280;50628;51.008;13.658;2022-09-03T09:26:28;99770.31;;;18.94;52.94
64292;BME280;50628;51.008;13.658;2022-09-03T09:31:29;99757.78;;;18.96;54.01
64292;BME280;50628;51.008;13.658;2022-09-03T09:36:39;99760.72;;;19.01;52.95
64292;BME280;50628;51.008;13.658;2022-09-03T09:41:42;99758.03;;;19.24;50.76
64292;BME280;50628;51.008;13.658;2022-09-03T09:46:44;99753.31;;;18.74;51.03
64292;BME280;50628;51.008;13.658;2022-09-03T09:51:47;99739.16;;;19.51;49.55
64292;BME280;50628;51.008;13.658;2022-09-03T09:56:58;99743.69;;;19.42;49.46
64292;BME280;50628;51.008;13.658;2022-09-03T10:02:09;99730.88;;;19.69;49.89
64292;BME280;50628;51.008;13.658;2022-09-03T10:07:22;99732.63;;;20.13;49.79
64292;BME280;50628;51.008;13.658;2022-09-03T10:12:28;99728.84;;;19.56;49.19
64292;BME280;50628;51.008;13.658;2022-09-03T10:17:41;99726.53;;;19.76;48.76
64292;BME280;50628;51.008;13.658;2022-09-03T10:22:51;99719.47;;;19.53;49.62
64292;BME280;50628;51.008;13.658;2022-09-03T10:27:54;99725.44;;;20.21;47.31
64292;BME280;50628;51.008;13.658;2022-09-03T10:33:06;99721.31;;;20.55;45.79
64292;BME280;50628;51.008;13.658;2022-09-03T10:38:19;99714.53;;;20.95;43.93
64292;BME280;50628;51.008;13.658;2022-09-03T10:43:40;99715.66;;;20.58;43.74
64292;BME280;50628;51.008;13.658;2022-09-03T10:49:01;99716.72;;;21.13;43.09
64292;BME280;50628;51.008;13.658;2022-09-03T10:54:31;99695.38;;;20.87;42.80
64292;BME280;50628;51.008;13.658;2022-09-03T10:59:45;99694.91;;;21.11;42.85
64292;BME280;50628;51.008;13.658;2022-09-03T11:04:57;99687.69;;;21.55;41.16
64292;BME280;50628;51.008;13.658;2022-09-03T11:10:11;99699.38;;;21.74;40.98
64292;BME280;50628;51.008;13.658;2022-09-03T11:15:23;99684.50;;;22.41;39.33
64292;BME280;50628;51.008;13.658;2022-09-03T11:20:28;99686.47;;;22.19;38.88
64292;BME280;50628;51.008;13.658;2022-09-03T11:25:34;99687.13;;;22.34;40.21
64292;BME280;50628;51.008;13.658;2022-09-03T11:30:45;99677.38;;;22.61;38.41
64292;BME280;50628;51.008;13.658;2022-09-03T11:35:55;99674.09;;;22.59;38.34
64292;BME280;50628;51.008;13.658;2022-09-03T11:41:09;99671.84;;;22.83;37.83
64292;BME280;50628;51.008;13.658;2022-09-03T11:46:25;99670.63;;;22.92;38.03
64292;BME280;50628;51.008;13.658;2022-09-03T11:51:32;99673.06;;;22.47;39.33
64292;BME280;50628;51.008;13.658;2022-09-03T11:56:36;99671.47;;;22.66;37.63
64292;BME280;50628;51.008;13.658;2022-09-03T12:01:39;99661.88;;;22.78;37.28
64292;BME280;50628;51.008;13.658;2022-09-03T12:06:56;99640.50;;;23.51;36.11
64292;BME280;50628;51.008;13.658;2022-09-03T12:12:13;99650.91;;;23.98;35.59
64292;BME280;50628;51.008;13.658;2022-09-03T12:17:26;99656.50;;;24.22;34.26
64292;BME280;50628;51.008;13.658;2022-09-03T12:22:35;99666.34;;;23.83;35.73
64292;BME280;50628;51.008;13.658;2022-09-03T12:27:43;99661.34;;;24.00;35.13
64292;BME280;50628;51.008;13.658;2022-09-03T12:32:46;99657.88;;;23.99;35.34
64292;BME280;50628;51.008;13.658;2022-09-03T12:37:51;99646.69;;;24.54;34.33
64292;BME280;50628;51.008;13.658;2022-09-03T12:42:55;99637.72;;;24.73;34.26
64292;BME280;50628;51.008;13.658;2022-09-03T12:48:12;99629.66;;;25.23;32.96
64292;BME280;50628;51.008;13.658;2022-09-03T12:53:21;99626.31;;;25.46;32.28
64292;BME280;50628;51.008;13.658;2022-09-03T12:58:30;99634.84;;;25.18;32.83
64292;BME280;50628;51.008;13.658;2022-09-03T13:03:48;99634.56;;;23.49;34.48
64292;BME280;50628;51.008;13.658;2022-09-03T13:08:55;99619.22;;;25.22;32.62
64292;BME280;50628;51.008;13.658;2022-09-03T13:14:02;99614.97;;;23.89;34.92
64292;BME280;50628;51.008;13.658;2022-09-03T13:19:09;99625.72;;;23.62;35.32
64292;BME280;50628;51.008;13.658;2022-09-03T13:24:27;99621.31;;;23.43;35.38
64292;BME280;50628;51.008;13.658;2022-09-03T13:29:48;99619.09;;;24.48;33.36
64292;BME280;50628;51.008;13.658;2022-09-03T13:35:01;99612.09;;;24.54;33.81
64292;BME280;50628;51.008;13.658;2022-09-03T13:40:13;99610.44;;;26.00;31.27
64292;BME280;50628;51.008;13.658;2022-09-03T13:45:27;99608.31;;;26.21;29.91
64292;BME280;50628;51.008;13.658;2022-09-03T13:50:36;99605.84;;;26.19;30.36
64292;BME280;50628;51.008;13.658;2022-09-03T13:55:43;99605.09;;;26.00;30.64
64292;BME280;50628;51.008;13.658;2022-09-03T14:00:52;99600.19;;;26.51;29.98
64292;BME280;50628;51.008;13.658;2022-09-03T14:06:01;99598.22;;;26.34;30.30
64292;BME280;50628;51.008;13.658;2022-09-03T14:11:20;99592.91;;;25.62;31.32
64292;BME280;50628;51.008;13.658;2022-09-03T14:16:35;99586.66;;;25.87;31.11
64292;BME280;50628;51.008;13.658;2022-09-03T14:21:41;99594.69;;;27.40;28.53
64292;BME280;50628;51.008;13.658;2022-09-03T14:26:50;99588.53;;;26.10;30.28
64292;BME280;50628;51.008;13.658;2022-09-03T14:32:05;99608.94;;;26.04;30.32
64292;BME280;50628;51.008;13.658;2022-09-03T14:37:25;99601.63;;;26.77;29.85
64292;BME280;50628;51.008;13.658;2022-09-03T14:42:43;99603.84;;;27.44;29.31
64292;BME280;50628;51.008;13.658;2022-09-03T14:48:10;99600.91;;;26.46;29.33
64292;BME280;50628;51.008;13.658;2022-09-03T14:53:26;99599.97;;;27.23;28.97
64292;BME280;50628;51.008;13.658;2022-09-03T14:58:41;99602.47;;;27.70;28.47
64292;BME280;50628;51.008;13.658;2022-09-03T15:04:08;99583.50;;;27.43;28.58
64292;BME280;50628;51.008;13.658;2022-09-03T15:09:20;99587.69;;;26.87;29.06
64292;BME280;50628;51.008;13.658;2022-09-03T15:14:29;99592.75;;;27.93;28.07
64292;BME280;50628;51.008;13.658;2022-09-03T15:19:59;99577.66;;;27.58;28.68
64292;BME280;50628;51.008;13.658;2022-09-03T15:25:14;99588.97;;;25.95;30.87
64292;BME280;50628;51.008;13.658;2022-09-03T15:30:20;99573.44;;;24.95;31.87
64292;BME280;50628;51.008;13.658;2022-09-03T15:36:00;99586.38;;;24.48;33.35
64292;BME280;50628;51.008;13.658;2022-09-03T15:41:08;99588.06;;;24.35;34.53
64292;BME280;50628;51.008;13.658;2022-09-03T15:46:13;99594.88;;;24.00;34.62
64292;BME280;50628;51.008;13.658;2022-09-03T15:51:35;99597.50;;;23.74;35.04
64292;BME280;50628;51.008;13.658;2022-09-03T15:56:52;99596.88;;;23.72;34.84
64292;BME280;50628;51.008;13.658;2022-09-03T16:02:02;99604.63;;;23.29;35.86
64292;BME280;50628;51.008;13.658;2022-09-03T16:07:14;99604.63;;;23.29;36.22
64292;BME280;50628;51.008;13.658;2022-09-03T16:12:27;99601.34;;;23.27;35.61
64292;BME280;50628;51.008;13.658;2022-09-03T16:17:35;99599.06;;;23.44;36.82
64292;BME280;50628;51.008;13.658;2022-09-03T16:22:44;99594.56;;;23.38;37.25
64292;BME280;50628;51.008;13.658;2022-09-03T16:27:53;99595.50;;;23.11;37.78
64292;BME280;50628;51.008;13.658;2022-09-03T16:33:04;99594.88;;;22.96;38.50
64292;BME280;50628;51.008;13.658;2022-09-03T16:38:21;99601.84;;;23.04;39.08
64292;BME280;50628;51.008;13.658;2022-09-03T16:43:31;99597.34;;;22.91;39.27
64292;BME280;50628;51.008;13.658;2022-09-03T16:48:41;99604.09;;;22.80;40.20
64292;BME280;50628;51.008;13.658;2022-09-03T16:53:58;99599.41;;;22.69;40.61
64292;BME280;50628;51.008;13.658;2022-09-03T16:59:18;99597.19;;;22.46;41.34
64292;BME280;50628;51.008;13.658;2022-09-03T17:10:06;99597.22;;;22.33;41.86
64292;BME280;50628;51.008;13.658;2022-09-03T17:15:22;99595.72;;;22.17;44.24
64292;BME280;50628;51.008;13.658;2022-09-03T17:20:38;99602.41;;;21.99;43.01
64292;BME280;50628;51.008;13.658;2022-09-03T17:25:52;99609.28;;;21.67;49.00
64292;BME280;50628;51.008;13.658;2022-09-03T17:30:57;99610.50;;;21.23;51.12
64292;BME280;50628;51.008;13.658;2022-09-03T17:36:09;99607.13;;;20.73;54.22
64292;BME280;50628;51.008;13.658;2022-09-03T17:41:20;99607.03;;;20.38;54.61
64292;BME280;50628;51.008;13.658;2022-09-03T17:46:30;99616.69;;;20.24;56.59
64292;BME280;50628;51.008;13.658;2022-09-03T17:51:40;99616.94;;;20.08;56.37
64292;BME280;50628;51.008;13.658;2022-09-03T17:56:51;99623.16;;;19.79;57.87
64292;BME280;50628;51.008;13.658;2022-09-03T18:02:00;99624.88;;;19.72;57.09
64292;BME280;50628;51.008;13.658;2022-09-03T18:07:08;99628.88;;;19.82;56.32
64292;BME280;50628;51.008;13.658;2022-09-03T18:12:25;99638.72;;;19.74;57.07
64292;BME280;50628;51.008;13.658;2022-09-03T18:17:34;99651.94;;;19.44;58.99
64292;BME280;50628;51.008;13.658;2022-09-03T18:22:46;99655.38;;;19.15;59.64
64292;BME280;50628;51.008;13.658;2022-09-03T18:28:11;99665.47;;;18.96;63.02
64292;BME280;50628;51.008;13.658;2022-09-03T18:33:32;99664.91;;;18.86;63.38
64292;BME280;50628;51.008;13.658;2022-09-03T18:38:51;99681.28;;;18.81;64.41
64292;BME280;50628;51.008;13.658;2022-09-03T18:44:17;99684.72;;;18.59;65.19
64292;BME280;50628;51.008;13.658;2022-09-03T18:49:45;99682.69;;;18.23;68.92
64292;BME280;50628;51.008;13.658;2022-09-03T18:55:12;99692.16;;;18.09;69.68
64292;BME280;50628;51.008;13.658;2022-09-03T19:00:40;99690.19;;;18.03;69.10
64292;BME280;50628;51.008;13.658;2022-09-03T19:06:11;99690.69;;;17.67;72.45
64292;BME280;50628;51.008;13.658;2022-09-03T19:11:36;99690.91;;;17.49;72.68
64292;BME280;50628;51.008;13.658;2022-09-03T19:17:05;99687.38;;;17.65;71.58
64292;BME280;50628;51.008;13.658;2022-09-03T19:22:32;99694.72;;;17.39;72.73
64292;BME280;50628;51.008;13.658;2022-09-03T19:28:03;99698.53;;;17.36;72.95
64292;BME280;50628;51.008;13.658;2022-09-03T19:33:34;99687.84;;;17.29;74.61
64292;BME280;50628;51.008;13.658;2022-09-03T19:39:06;99694.28;;;17.02;76.36
64292;BME280;50628;51.008;13.658;2022-09-03T19:44:41;99699.06;;;16.99;76.33
64292;BME280;50628;51.008;13.658;2022-09-03T19:50:13;99706.78;;;17.00;76.27
64292;BME280;50628;51.008;13.658;2022-09-03T19:55:38;99704.81;;;16.94;75.93
64292;BME280;50628;51.008;13.658;2022-09-03T20:00:58;99710.25;;;16.93;76.17
64292;BME280;50628;51.008;13.658;2022-09-03T20:06:19;99717.13;;;16.77;77.61
64292;BME280;50628;51.008;13.658;2022-09-03T20:11:40;99721.38;;;16.62;78.65
64292;BME280;50628;51.008;13.658;2022-09-03T20:16:49;99730.41;;;16.51;81.03
64292;BME280;50628;51.008;13.658;2022-09-03T20:21:58;99733.53;;;16.55;79.64
64292;BME280;50628;51.008;13.658;2022-09-03T20:27:09;99735.00;;;16.49;80.29
64292;BME280;50628;51.008;13.658;2022-09-03T20:32:26;99737.09;;;16.37;81.67
64292;BME280;50628;51.008;13.658;2022-09-03T20:37:39;99736.75;;;16.24;81.43
64292;BME280;50628;51.008;13.658;2022-09-03T20:48:03;99743.88;;;16.56;80.20
64292;BME280;50628;51.008;13.658;2022-09-03T20:53:18;99756.47;;;16.36;81.65
64292;BME280;50628;51.008;13.658;2022-09-03T20:58:28;99756.44;;;16.20;83.48
64292;BME280;50628;51.008;13.658;2022-09-03T21:03:42;99750.03;;;16.22;83.12
64292;BME280;50628;51.008;13.658;2022-09-03T21:09:06;99758.41;;;16.18;83.75
64292;BME280;50628;51.008;13.658;2022-09-03T21:14:19;99757.72;;;16.08;84.19
64292;BME280;50628;51.008;13.658;2022-09-03T21:19:35;99760.34;;;16.08;84.16
64292;BME280;50628;51.008;13.658;2022-09-03T21:24:46;99750.66;;;16.08;84.31
64292;BME280;50628;51.008;13.658;2022-09-03T21:29:57;99753.44;;;16.07;84.31
64292;BME280;50628;51.008;13.658;2022-09-03T21:35:05;99753.44;;;16.15;84.74
64292;BME280;50628;51.008;13.658;2022-09-03T21:40:12;99754.91;;;16.09;85.12
64292;BME280;50628;51.008;13.658;2022-09-03T21:45:21;99764.50;;;15.84;87.13
64292;BME280;50628;51.008;13.658;2022-09-03T21:50:30;99769.75;;;15.84;86.56
64292;BME280;50628;51.008;13.658;2022-09-03T21:55:50;99783.53;;;15.86;86.44
64292;BME280;50628;51.008;13.658;2022-09-03T22:01:00;99774.97;;;15.76;86.65
64292;BME280;50628;51.008;13.658;2022-09-03T22:06:09;99789.44;;;15.62;88.85
64292;BME280;50628;51.008;13.658;2022-09-03T22:11:21;99780.22;;;15.76;88.95
64292;BME280;50628;51.008;13.658;2022-09-03T22:16:32;99780.00;;;15.69;88.80
64292;BME280;50628;51.008;13.658;2022-09-03T22:21:40;99782.38;;;15.81;88.22
64292;BME280;50628;51.008;13.658;2022-09-03T22:27:03;99782.06;;;15.84;89.17
64292;BME280;50628;51.008;13.658;2022-09-03T22:32:19;99777.59;;;15.76;88.61
64292;BME280;50628;51.008;13.658;2022-09-03T22:37:38;99772.94;;;15.70;88.72
64292;BME280;50628;51.008;13.658;2022-09-03T22:42:53;99771.41;;;15.33;91.15
64292;BME280;50628;51.008;13.658;2022-09-03T22:48:08;99794.03;;;15.16;93.27
64292;BME280;50628;51.008;13.658;2022-09-03T22:53:20;99781.84;;;15.25;93.35
64292;BME280;50628;51.008;13.658;2022-09-03T22:58:28;99782.59;;;15.43;92.07
64292;BME280;50628;51.008;13.658;2022-09-03T23:03:38;99775.88;;;15.41;91.96
64292;BME280;50628;51.008;13.658;2022-09-03T23:08:45;99776.28;;;15.28;92.61
64292;BME280;50628;51.008;13.658;2022-09-03T23:13:54;99782.47;;;15.27;93.03
64292;BME280;50628;51.008;13.658;2022-09-03T23:18:58;99780.13;;;15.15;93.69
64292;BME280;50628;51.008;13.658;2022-09-03T23:24:06;99779.94;;;15.35;92.74
64292;BME280;50628;51.008;13.658;2022-09-03T23:29:14;99780.44;;;15.39;92.57
64292;BME280;50628;51.008;13.658;2022-09-03T23:34:17;99786.09;;;15.26;94.21
64292;BME280;50628;51.008;13.658;2022-09-03T23:39:27;99785.78;;;15.29;94.72
64292;BME280;50628;51.008;13.658;2022-09-03T23:44:48;99784.81;;;15.30;94.18
64292;BME280;50628;51.008;13.658;2022-09-03T23:50:00;99787.31;;;15.13;95.54
64292;BME280;50628;51.008;13.658;2022-09-03T23:55:10;99781.16;;;15.23;94.72
